Time;durP1;ratioP1;P1;durP2;ratioP2;P2;SDS_P1;SDS_P2;PMS_P1;PMS_P2;Temp;Humidity;BMP_temperature;BMP_pressure;BME280_temperature;BME280_humidity;BME280_pressure;Samples;Min_cycle;Max_cycle;Signal;HPM_P1;HPM_P2
2022/08/29 00:01:49;;;;;;;;;;;;;;;14.79;91.31;100728.80;1631809;86;20206;-77
2022/08/29 00:04:15;;;;;;;;;;;;;;;14.78;91.31;100726.62;1643892;86;20199;-77
2022/08/29 00:06:41;;;;;;;;;;;;;;;14.77;91.30;100736.23;1644123;86;20793;-77
2022/08/29 00:09:07;;;;;;;;;;;;;;;14.74;91.32;100733.92;1643384;86;20307;-78
2022/08/29 00:11:33;;;;;;;;;;;;;;;14.72;91.34;100738.63;1642457;86;21217;-78
2022/08/29 00:13:58;;;;;;;;;;;;;;;14.74;91.36;100729.36;1633262;86;20252;-78
2022/08/29 00:16:24;;;;;;;;;;;;;;;14.74;91.36;100726.67;1649361;85;20282;-78
2022/08/29 00:18:50;;;;;;;;;;;;;;;14.77;91.37;100725.49;1641453;86;20192;-78
2022/08/29 00:21:16;;;;;;;;;;;;;;;14.82;91.38;100727.08;1624907;88;20255;-78
2022/08/29 00:23:45;;;;;;;;;;;;;;;14.85;91.37;100721.33;1677991;85;21958;-77
2022/08/29 00:26:11;;;;;;;;;;;;;;;14.88;91.36;100725.00;1665680;84;20179;-77
2022/08/29 00:28:37;;;;;;;;;;;;;;;14.89;91.36;100732.02;1657470;86;20191;-77
2022/08/29 00:31:02;;;;;;;;;;;;;;;14.90;91.38;100728.31;1654811;86;20393;-77
2022/08/29 00:33:28;;;;;;;;;;;;;;;14.90;91.37;100728.31;1636793;86;20349;-77
2022/08/29 00:35:54;;;;;;;;;;;;;;;14.90;91.38;100726.97;1655285;86;21119;-77
2022/08/29 00:38:20;;;;;;;;;;;;;;;14.87;91.39;100726.85;1643504;86;20208;-78
2022/08/29 00:40:52;;;;;;;;;;;;;;;14.84;91.37;100740.66;1644989;86;20476;-78
2022/08/29 00:43:20;;;;;;;;;;;;;;;14.80;91.39;100736.69;1645150;86;20468;-77
2022/08/29 00:45:50;;;;;;;;;;;;;;;14.79;91.37;100735.01;1642067;86;20180;-78
2022/08/29 00:48:16;;;;;;;;;;;;;;;14.75;91.37;100736.41;1648755;86;22135;-77
2022/08/29 00:50:54;;;;;;;;;;;;;;;14.73;91.36;100724.20;1635893;86;20219;-77
2022/08/29 00:53:23;;;;;;;;;;;;;;;14.72;91.38;100731.92;1637104;86;20456;-77
2022/08/29 00:55:49;;;;;;;;;;;;;;;14.68;91.37;100729.29;1668438;86;20953;-77
2022/08/29 00:58:19;;;;;;;;;;;;;;;14.63;91.36;100731.72;1646432;86;20168;-77
2022/08/29 01:00:44;;;;;;;;;;;;;;;14.60;91.39;100733.45;1640637;86;21152;-77
2022/08/29 01:03:10;;;;;;;;;;;;;;;14.57;91.41;100733.80;1661040;86;20179;-78
2022/08/29 01:05:36;;;;;;;;;;;;;;;14.58;91.42;100735.47;1662728;86;20758;-77
2022/08/29 01:08:03;;;;;;;;;;;;;;;14.58;91.41;100736.81;1671485;86;20235;-77
2022/08/29 01:13:13;;;;;;;;;;;;;;;14.50;91.42;100734.55;1661688;86;21018;-77
2022/08/29 01:15:40;;;;;;;;;;;;;;;14.50;91.45;100736.39;1628609;86;39518;-77
2022/08/29 01:18:06;;;;;;;;;;;;;;;14.48;91.40;100743.31;1640095;86;20162;-78
2022/08/29 01:21:12;;;;;;;;;;;;;;;14.45;91.42;100746.38;1638357;85;20167;-78
2022/08/29 01:23:49;;;;;;;;;;;;;;;14.44;91.42;100746.55;1590012;89;20184;-78
2022/08/29 01:26:15;;;;;;;;;;;;;;;14.42;91.41;100742.72;1567630;90;21307;-77
2022/08/29 01:28:43;;;;;;;;;;;;;;;14.41;91.37;100754.47;1612379;85;20243;-78
2022/08/29 01:31:14;;;;;;;;;;;;;;;14.39;91.36;100752.45;1670971;85;20227;-77
2022/08/29 01:33:48;;;;;;;;;;;;;;;14.37;91.39;100751.83;1649573;85;20170;-78
2022/08/29 01:36:19;;;;;;;;;;;;;;;14.37;91.38;100754.52;1648688;85;20158;-78
2022/08/29 01:38:46;;;;;;;;;;;;;;;14.30;91.35;100756.23;1646108;86;21110;-78
2022/08/29 01:41:12;;;;;;;;;;;;;;;14.24;91.35;100754.30;1646040;86;20143;-78
2022/08/29 01:43:47;;;;;;;;;;;;;;;14.24;91.36;100756.98;1646001;85;20164;-78
2022/08/29 01:46:15;;;;;;;;;;;;;;;14.22;91.36;100750.95;1657494;86;20161;-78
2022/08/29 01:48:43;;;;;;;;;;;;;;;14.19;91.33;100748.64;1651369;85;20189;-78
2022/08/29 01:51:09;;;;;;;;;;;;;;;14.12;91.29;100750.40;1646054;86;21184;-78
2022/08/29 01:53:35;;;;;;;;;;;;;;;14.07;91.29;100754.16;1645949;86;20267;-79
2022/08/29 01:56:24;;;;;;;;;;;;;;;14.04;91.30;100746.45;1646207;85;20492;-78
2022/08/29 01:58:51;;;;;;;;;;;;;;;14.03;91.30;100745.31;1645933;85;20150;-78
2022/08/29 02:01:23;;;;;;;;;;;;;;;13.98;91.29;100744.02;1647257;85;20168;-78
2022/08/29 02:03:49;;;;;;;;;;;;;;;13.92;91.32;100749.28;1662654;85;21210;-78
2022/08/29 02:06:15;;;;;;;;;;;;;;;13.86;91.32;100748.67;1647170;85;20180;-78
2022/08/29 02:08:41;;;;;;;;;;;;;;;13.83;91.33;100747.67;1639006;85;20245;-77
2022/08/29 02:11:09;;;;;;;;;;;;;;;13.81;91.35;100743.02;1665724;85;20847;-78
2022/08/29 02:13:39;;;;;;;;;;;;;;;13.79;91.34;100739.70;1636589;85;20192;-78
2022/08/29 02:16:06;;;;;;;;;;;;;;;13.77;91.36;100742.55;1656098;85;22044;-77
2022/08/29 02:18:32;;;;;;;;;;;;;;;13.77;91.37;100751.09;1646101;86;20490;-78
2022/08/29 02:20:58;;;;;;;;;;;;;;;13.75;91.39;100744.59;1646043;86;20285;-79
2022/08/29 02:23:24;;;;;;;;;;;;;;;13.75;91.42;100739.23;1662573;86;20181;-78
2022/08/29 02:25:50;;;;;;;;;;;;;;;13.75;91.40;100742.41;1631375;86;20276;-78
2022/08/29 02:28:17;;;;;;;;;;;;;;;13.72;91.39;100740.91;1655689;85;22011;-77
2022/08/29 02:30:45;;;;;;;;;;;;;;;13.72;91.39;100751.63;1651065;86;20485;-78
2022/08/29 02:33:12;;;;;;;;;;;;;;;13.70;91.42;100750.16;1650641;86;20165;-78
2022/08/29 02:35:38;;;;;;;;;;;;;;;13.69;91.42;100753.84;1655165;85;20168;-78
2022/08/29 02:38:04;;;;;;;;;;;;;;;13.67;91.44;100750.52;1640961;86;20158;-78
2022/08/29 02:40:31;;;;;;;;;;;;;;;13.65;91.46;100752.56;1642558;86;21161;-78
2022/08/29 02:42:57;;;;;;;;;;;;;;;13.62;91.48;100752.89;1642767;86;20476;-78
2022/08/29 02:45:23;;;;;;;;;;;;;;;13.61;91.51;100758.79;1652428;86;20195;-78
2022/08/29 02:47:49;;;;;;;;;;;;;;;13.60;91.52;100755.77;1647297;86;20166;-78
2022/08/29 02:50:15;;;;;;;;;;;;;;;13.59;91.53;100755.94;1659443;86;20188;-78
2022/08/29 02:52:41;;;;;;;;;;;;;;;13.57;91.57;100747.27;1661931;86;22684;-78
2022/08/29 02:55:08;;;;;;;;;;;;;;;13.56;91.57;100754.97;1664725;86;20534;-78
2022/08/29 02:57:34;;;;;;;;;;;;;;;13.54;91.57;100754.33;1629310;86;20201;-77
2022/08/29 03:00:00;;;;;;;;;;;;;;;13.50;91.56;100749.33;1654644;86;20817;-78
2022/08/29 03:02:26;;;;;;;;;;;;;;;13.49;91.59;100753.52;1661782;86;20264;-78
2022/08/29 03:04:52;;;;;;;;;;;;;;;13.47;91.59;100752.34;1652566;86;21140;-77
2022/08/29 03:07:18;;;;;;;;;;;;;;;13.45;91.61;100747.69;1651193;86;20217;-78
2022/08/29 03:09:44;;;;;;;;;;;;;;;13.44;91.62;100750.03;1652354;86;20267;-78
2022/08/29 03:12:10;;;;;;;;;;;;;;;13.43;91.64;100751.06;1666432;86;20509;-78
2022/08/29 03:14:36;;;;;;;;;;;;;;;13.41;91.63;100754.41;1647618;86;20174;-78
2022/08/29 03:17:02;;;;;;;;;;;;;;;13.41;91.65;100754.41;1646411;86;21077;-78
2022/08/29 03:19:28;;;;;;;;;;;;;;;13.40;91.67;100751.93;1630961;87;20265;-78
2022/08/29 03:21:54;;;;;;;;;;;;;;;13.39;91.68;100753.77;1633096;87;20233;-78
2022/08/29 03:24:20;;;;;;;;;;;;;;;13.38;91.69;100753.94;1635879;87;20211;-79
2022/08/29 03:26:46;;;;;;;;;;;;;;;13.35;91.70;100762.34;1613399;87;20182;-78
2022/08/29 03:29:11;;;;;;;;;;;;;;;13.33;91.72;100755.84;1632092;87;21110;-78
2022/08/29 03:31:37;;;;;;;;;;;;;;;13.30;91.74;100761.52;1623073;87;20187;-77
2022/08/29 03:34:03;;;;;;;;;;;;;;;13.27;91.74;100763.22;1634786;87;20163;-78
2022/08/29 03:36:31;;;;;;;;;;;;;;;13.27;91.76;100763.73;1622661;87;20462;-78
2022/08/29 03:38:57;;;;;;;;;;;;;;;13.25;91.73;100761.74;1616035;87;20158;-78
2022/08/29 03:41:25;;;;;;;;;;;;;;;13.23;91.75;100765.92;1627089;87;21184;-78
2022/08/29 03:43:54;;;;;;;;;;;;;;;13.22;91.77;100758.92;1608644;87;20182;-78
2022/08/29 03:46:20;;;;;;;;;;;;;;;13.20;91.77;100769.47;1616275;87;20159;-78
2022/08/29 03:48:47;;;;;;;;;;;;;;;13.17;91.78;100768.48;1616150;87;20167;-78
2022/08/29 03:51:13;;;;;;;;;;;;;;;13.14;91.78;100769.69;1626609;87;20194;-78
2022/08/29 03:53:39;;;;;;;;;;;;;;;13.13;91.79;100774.70;1620579;87;21132;-78
2022/08/29 03:56:06;;;;;;;;;;;;;;;13.13;91.81;100779.22;1616081;89;20170;-78
2022/08/29 03:58:32;;;;;;;;;;;;;;;13.11;91.82;100775.40;1615978;87;20638;-78
2022/08/29 04:00:58;;;;;;;;;;;;;;;13.10;91.83;100773.72;1615266;87;20175;-78
2022/08/29 04:03:25;;;;;;;;;;;;;;;13.10;91.85;100775.06;1616126;87;20236;-78
2022/08/29 04:05:51;;;;;;;;;;;;;;;13.09;91.83;100773.88;1615994;87;21131;-78
2022/08/29 04:08:16;;;;;;;;;;;;;;;13.08;91.85;100774.39;1616635;87;20166;-78
2022/08/29 04:10:42;;;;;;;;;;;;;;;13.06;91.86;100779.06;1630792;87;20276;-78
2022/08/29 04:13:08;;;;;;;;;;;;;;;13.05;91.87;100786.79;1627712;87;20778;-78
2022/08/29 04:15:34;;;;;;;;;;;;;;;13.06;91.88;100790.27;1607567;87;20222;-78
2022/08/29 04:18:01;;;;;;;;;;;;;;;13.06;91.90;100784.42;1626298;86;21753;-78
2022/08/29 04:20:29;;;;;;;;;;;;;;;13.09;91.91;100786.77;1638265;86;20190;-78
2022/08/29 04:22:56;;;;;;;;;;;;;;;13.12;91.92;100795.81;1639914;86;20156;-78
2022/08/29 04:25:23;;;;;;;;;;;;;;;13.10;91.90;100791.12;1638031;86;20187;-78
2022/08/29 04:27:50;;;;;;;;;;;;;;;13.11;91.89;100792.80;1636011;86;20494;-78
2022/08/29 04:30:17;;;;;;;;;;;;;;;13.14;91.89;100794.28;1631206;86;21147;-78
2022/08/29 04:32:43;;;;;;;;;;;;;;;13.19;91.94;100792.77;1642941;86;20158;-78
2022/08/29 04:35:09;;;;;;;;;;;;;;;13.35;91.92;100797.16;1634612;86;20226;-78
2022/08/29 04:37:35;;;;;;;;;;;;;;;13.75;92.07;100792.00;1641344;86;20185;-78
2022/08/29 04:40:01;;;;;;;;;;;;;;;14.47;92.54;100795.31;1639198;86;20466;-78
2022/08/29 04:42:27;;;;;;;;;;;;;;;15.16;92.58;100794.94;1633851;86;21184;-78
2022/08/29 04:44:53;;;;;;;;;;;;;;;15.79;92.51;100791.45;1631989;86;20164;-78
2022/08/29 04:47:21;;;;;;;;;;;;;;;16.29;92.31;100784.46;1641056;86;21137;-78
2022/08/29 04:49:48;;;;;;;;;;;;;;;16.68;92.04;100791.12;1640721;86;20353;-78
2022/08/29 04:52:14;;;;;;;;;;;;;;;17.08;91.75;100791.62;1641260;86;20187;-78
2022/08/29 04:54:40;;;;;;;;;;;;;;;17.57;91.46;100788.64;1633257;86;21886;-78
2022/08/29 04:57:06;;;;;;;;;;;;;;;17.92;91.10;100786.58;1631469;86;20286;-77
2022/08/29 04:59:33;;;;;;;;;;;;;;;18.32;90.46;100789.55;1641845;86;20465;-77
2022/08/29 05:01:59;;;;;;;;;;;;;;;18.67;89.96;100792.81;1640155;86;20182;-78
2022/08/29 05:04:25;;;;;;;;;;;;;;;18.85;89.15;100794.83;1634769;86;20263;-78
2022/08/29 05:06:51;;;;;;;;;;;;;;;19.04;88.50;100797.95;1635629;86;21362;-77
2022/08/29 05:09:17;;;;;;;;;;;;;;;19.18;87.81;100788.73;1646377;86;20580;-78
2022/08/29 05:11:42;;;;;;;;;;;;;;;19.41;87.09;100801.23;1636073;86;20192;-78
2022/08/29 05:14:08;;;;;;;;;;;;;;;19.72;86.46;100799.03;1626931;86;20186;-78
2022/08/29 05:16:36;;;;;;;;;;;;;;;19.75;85.36;100795.88;1633719;86;20728;-78
2022/08/29 05:19:03;;;;;;;;;;;;;;;19.66;83.98;100791.80;1640529;86;22150;-78
2022/08/29 05:21:31;;;;;;;;;;;;;;;19.14;83.17;100795.61;1646542;86;20149;-78
2022/08/29 05:23:57;;;;;;;;;;;;;;;18.62;83.28;100799.36;1654048;86;20424;-78
2022/08/29 05:26:23;;;;;;;;;;;;;;;18.17;83.56;100806.50;1651680;86;20182;-78
2022/08/29 05:28:50;;;;;;;;;;;;;;;17.93;83.81;100809.32;1643334;86;20180;-78
2022/08/29 05:31:16;;;;;;;;;;;;;;;17.78;83.76;100811.89;1644768;86;21291;-78
2022/08/29 05:33:42;;;;;;;;;;;;;;;17.76;83.74;100813.47;1659099;86;20181;-78
2022/08/29 05:36:08;;;;;;;;;;;;;;;17.62;83.58;100820.40;1643261;86;20291;-78
2022/08/29 05:38:34;;;;;;;;;;;;;;;17.38;83.35;100817.19;1643340;86;20434;-78
2022/08/29 05:41:00;;;;;;;;;;;;;;;17.26;83.23;100815.30;1643124;86;20217;-78
2022/08/29 05:43:28;;;;;;;;;;;;;;;17.32;83.17;100816.67;1645688;86;21836;-79
2022/08/29 05:46:01;;;;;;;;;;;;;;;17.34;83.03;100818.66;1639572;86;20476;-79
2022/08/29 05:48:27;;;;;;;;;;;;;;;17.49;82.98;100815.25;1640031;86;20198;-78
2022/08/29 05:50:53;;;;;;;;;;;;;;;17.73;82.84;100817.09;1648129;86;20182;-78
2022/08/29 05:53:19;;;;;;;;;;;;;;;17.82;82.71;100821.24;1643800;86;20222;-78
2022/08/29 05:55:45;;;;;;;;;;;;;;;17.76;82.49;100820.73;1643104;86;21850;-78
2022/08/29 05:58:11;;;;;;;;;;;;;;;17.81;82.28;100818.22;1643106;86;20307;-78
2022/08/29 06:00:39;;;;;;;;;;;;;;;18.03;82.23;100823.73;1624107;86;20169;-78
2022/08/29 06:03:05;;;;;;;;;;;;;;;18.09;82.03;100832.34;1642672;86;20151;-78
2022/08/29 06:05:31;;;;;;;;;;;;;;;17.89;81.76;100833.70;1643295;86;20225;-78
2022/08/29 06:07:57;;;;;;;;;;;;;;;17.85;81.58;100830.27;1643325;86;21210;-78
2022/08/29 06:10:23;;;;;;;;;;;;;;;17.92;81.45;100835.16;1642332;86;20163;-78
2022/08/29 06:12:49;;;;;;;;;;;;;;;17.88;81.26;100826.64;1642616;86;20274;-78
2022/08/29 06:15:15;;;;;;;;;;;;;;;17.96;81.14;100835.89;1643107;86;20442;-78
2022/08/29 06:17:40;;;;;;;;;;;;;;;17.83;80.82;100829.14;1643228;86;20163;-78
2022/08/29 06:20:08;;;;;;;;;;;;;;;17.88;80.80;100836.59;1643325;86;21238;-78
2022/08/29 06:22:35;;;;;;;;;;;;;;;17.99;80.67;100838.69;1642109;86;20231;-78
2022/08/29 06:25:01;;;;;;;;;;;;;;;18.12;80.56;100835.98;1648151;86;20210;-78
2022/08/29 06:27:27;;;;;;;;;;;;;;;18.18;80.35;100835.67;1663841;86;20531;-79
2022/08/29 06:29:53;;;;;;;;;;;;;;;18.25;80.29;100841.39;1650332;86;20172;-78
2022/08/29 06:32:19;;;;;;;;;;;;;;;18.36;80.18;100846.16;1662623;86;21246;-78
2022/08/29 06:34:45;;;;;;;;;;;;;;;18.38;79.96;100852.17;1664462;86;20291;-78
2022/08/29 06:37:11;;;;;;;;;;;;;;;18.25;79.68;100852.70;1625825;86;20221;-78
2022/08/29 06:39:37;;;;;;;;;;;;;;;18.23;79.49;100853.41;1643202;86;20151;-78
2022/08/29 06:42:03;;;;;;;;;;;;;;;18.36;79.49;100848.86;1643160;86;20234;-78
2022/08/29 06:44:30;;;;;;;;;;;;;;;18.43;79.32;100848.84;1643015;86;21379;-78
2022/08/29 06:46:56;;;;;;;;;;;;;;;18.47;79.15;100854.14;1642651;86;20151;-78
2022/08/29 06:49:22;;;;;;;;;;;;;;;18.40;78.88;100860.87;1643374;86;20187;-79
2022/08/29 06:51:49;;;;;;;;;;;;;;;18.39;78.80;100870.05;1642844;86;20177;-78
2022/08/29 06:54:15;;;;;;;;;;;;;;;18.57;78.84;100864.03;1650994;86;20159;-71
2022/08/29 06:56:41;;;;;;;;;;;;;;;18.71;78.67;100869.72;1645354;86;21253;-71
2022/08/29 06:59:07;;;;;;;;;;;;;;;18.75;78.48;100861.47;1665639;86;20361;-71
2022/08/29 07:01:33;;;;;;;;;;;;;;;18.71;78.33;100862.95;1651625;86;20278;-71
2022/08/29 07:03:59;;;;;;;;;;;;;;;18.63;78.06;100870.45;1648078;86;20190;-72
2022/08/29 07:06:25;;;;;;;;;;;;;;;18.57;77.87;100869.95;1663280;86;20707;-72
2022/08/29 07:08:51;;;;;;;;;;;;;;;18.64;77.87;100869.41;1653038;86;21442;-71
2022/08/29 07:11:17;;;;;;;;;;;;;;;18.72;77.78;100862.41;1655754;86;20710;-72
2022/08/29 07:13:43;;;;;;;;;;;;;;;18.80;77.59;100869.78;1646524;86;20449;-71
2022/08/29 07:16:15;;;;;;;;;;;;;;;18.80;77.40;100869.78;1669751;86;20180;-72
2022/08/29 07:18:42;;;;;;;;;;;;;;;18.84;77.29;100870.19;1664062;85;20169;-72
2022/08/29 07:21:09;;;;;;;;;;;;;;;19.01;77.18;100876.78;1651599;85;21490;-72
2022/08/29 07:23:35;;;;;;;;;;;;;;;19.14;77.09;100874.02;1699358;83;20179;-72
2022/08/29 07:26:12;;;;;;;;;;;;;;;19.14;76.98;100879.43;1701223;83;20166;-72
2022/08/29 07:28:38;;;;;;;;;;;;;;;19.22;76.87;100883.26;1703551;83;20160;-72
2022/08/29 07:31:04;;;;;;;;;;;;;;;19.32;76.75;100885.50;1711839;83;20742;-73
2022/08/29 07:33:30;;;;;;;;;;;;;;;19.28;76.46;100884.30;1712483;83;21497;-72
2022/08/29 07:35:57;;;;;;;;;;;;;;;19.24;76.30;100881.70;1705941;83;20152;-72
2022/08/29 07:38:23;;;;;;;;;;;;;;;19.29;76.21;100886.77;1696245;83;20186;-72
2022/08/29 07:40:57;;;;;;;;;;;;;;;19.36;76.08;100890.27;1697814;83;20931;-72
2022/08/29 07:43:23;;;;;;;;;;;;;;;19.48;76.04;100889.11;1696355;83;20166;-72
2022/08/29 07:45:49;;;;;;;;;;;;;;;19.66;75.92;100891.09;1697956;83;21647;-73
2022/08/29 07:48:15;;;;;;;;;;;;;;;19.77;75.83;100889.05;1706073;83;20280;-72
2022/08/29 07:50:41;;;;;;;;;;;;;;;20.02;75.83;100889.89;1698461;83;20163;-72
2022/08/29 07:53:07;;;;;;;;;;;;;;;20.06;75.58;100886.22;1697205;83;20306;-81
2022/08/29 07:55:33;;;;;;;;;;;;;;;20.08;75.47;100893.63;1701138;83;20599;-82
2022/08/29 07:57:59;;;;;;;;;;;;;;;20.02;75.18;100898.02;1701594;83;21646;-80
2022/08/29 08:00:25;;;;;;;;;;;;;;;20.06;75.18;100893.83;1697329;83;20293;-82
2022/08/29 08:02:51;;;;;;;;;;;;;;;20.17;75.00;100890.94;1696782;83;20159;-81
2022/08/29 08:05:17;;;;;;;;;;;;;;;20.19;74.79;100895.63;1698189;83;20698;-82
2022/08/29 08:07:43;;;;;;;;;;;;;;;20.23;74.57;100893.59;1697403;83;20245;-79
2022/08/29 08:10:09;;;;;;;;;;;;;;;20.31;74.54;100896.06;1697857;83;21782;-75
2022/08/29 08:12:35;;;;;;;;;;;;;;;20.61;74.61;100888.61;1706114;83;20759;-74
2022/08/29 08:15:02;;;;;;;;;;;;;;;20.73;74.37;100897.64;1697584;83;20201;-75
2022/08/29 08:17:28;;;;;;;;;;;;;;;20.71;74.23;100899.77;1696869;83;20612;-75
2022/08/29 08:19:54;;;;;;;;;;;;;;;20.80;74.12;100897.88;1691757;83;20230;-75
2022/08/29 08:22:20;;;;;;;;;;;;;;;20.84;74.02;100899.09;1689570;83;21892;-75
2022/08/29 08:24:47;;;;;;;;;;;;;;;20.74;73.62;100896.60;1693754;83;20596;-75
2022/08/29 08:27:13;;;;;;;;;;;;;;;20.42;73.41;100892.63;1700777;83;20140;-75
2022/08/29 08:29:39;;;;;;;;;;;;;;;20.21;73.17;100897.58;1712466;83;20522;-75
2022/08/29 08:32:05;;;;;;;;;;;;;;;20.33;73.25;100895.33;1705431;83;20204;-74
2022/08/29 08:34:31;;;;;;;;;;;;;;;20.48;73.08;100898.23;1710574;83;21764;-75
2022/08/29 08:36:57;;;;;;;;;;;;;;;20.71;73.02;100890.28;1689835;83;20839;-75
2022/08/29 08:39:23;;;;;;;;;;;;;;;20.82;72.79;100893.09;1703176;83;20249;-74
2022/08/29 08:41:57;;;;;;;;;;;;;;;20.87;72.67;100891.03;1694300;83;20393;-75
2022/08/29 08:44:33;;;;;;;;;;;;;;;20.92;72.59;100887.13;1690605;83;20115;-75
2022/08/29 08:47:00;;;;;;;;;;;;;;;20.84;72.45;100889.61;1690021;83;21796;-74
2022/08/29 08:49:48;;;;;;;;;;;;;;;20.68;72.27;100889.38;1699233;83;20511;-74
2022/08/29 08:52:17;;;;;;;;;;;;;;;20.57;72.29;100895.52;1636488;85;20394;-73
2022/08/29 08:54:46;;;;;;;;;;;;;;;20.52;72.24;100884.52;1657794;85;20537;-74
2022/08/29 08:57:12;;;;;;;;;;;;;;;20.51;72.16;100892.36;1617191;87;20701;-74
2022/08/29 08:59:43;;;;;;;;;;;;;;;20.66;71.99;100894.17;1631037;86;21809;-74
2022/08/29 09:02:27;;;;;;;;;;;;;;;20.57;71.80;100895.52;1648160;86;20171;-74
2022/08/29 09:05:20;;;;;;;;;;;;;;;20.49;71.82;100898.51;1653820;86;20530;-74
2022/08/29 09:07:52;;;;;;;;;;;;;;;20.55;71.68;100902.51;1646216;86;20826;-74
2022/08/29 09:10:43;;;;;;;;;;;;;;;20.67;71.55;100899.91;1646193;86;20175;-74
2022/08/29 09:13:25;;;;;;;;;;;;;;;20.86;71.53;100902.95;1653597;86;21773;-74
2022/08/29 09:15:52;;;;;;;;;;;;;;;20.99;71.26;100897.38;1644762;86;20163;-74
2022/08/29 09:18:24;;;;;;;;;;;;;;;21.02;71.07;100900.16;1650551;86;20119;-74
2022/08/29 09:20:50;;;;;;;;;;;;;;;20.91;70.92;100899.86;1620919;87;20478;-74
2022/08/29 09:23:21;;;;;;;;;;;;;;;20.98;70.94;100893.52;1606804;87;20185;-73
2022/08/29 09:25:47;;;;;;;;;;;;;;;20.96;70.74;100901.91;1614013;87;22503;-73
2022/08/29 09:28:13;;;;;;;;;;;;;;;21.00;70.47;100887.36;1629928;87;20208;-73
2022/08/29 09:30:41;;;;;;;;;;;;;;;20.80;70.23;100895.70;1620861;87;20254;-73
2022/08/29 09:33:09;;;;;;;;;;;;;;;20.81;70.10;100885.16;1614943;88;20581;-73
2022/08/29 09:35:41;;;;;;;;;;;;;;;20.84;69.88;100890.97;1608833;88;20175;-74
2022/08/29 09:38:11;;;;;;;;;;;;;;;20.76;69.67;100895.84;1614092;87;21629;-74
2022/08/29 09:40:53;;;;;;;;;;;;;;;20.73;69.58;100886.28;1616981;87;20193;-74
2022/08/29 09:43:25;;;;;;;;;;;;;;;20.70;69.48;100895.39;1607062;87;20340;-74
2022/08/29 09:46:20;;;;;;;;;;;;;;;20.88;69.44;100899.48;1611490;87;20564;-73
2022/08/29 09:48:49;;;;;;;;;;;;;;;21.13;69.37;100898.91;1615914;87;20148;-73
2022/08/29 09:51:25;;;;;;;;;;;;;;;21.15;68.89;100892.72;1614552;87;21934;-73
2022/08/29 09:54:12;;;;;;;;;;;;;;;21.17;68.58;100889.80;1625920;87;20275;-73
2022/08/29 09:56:41;;;;;;;;;;;;;;;21.25;68.39;100893.02;1623724;87;20557;-73
2022/08/29 09:59:14;;;;;;;;;;;;;;;21.28;68.01;100891.23;1616463;87;21031;-73
2022/08/29 10:01:40;;;;;;;;;;;;;;;21.06;67.61;100895.95;1617015;87;20200;-74
2022/08/29 10:04:06;;;;;;;;;;;;;;;20.95;67.51;100902.95;1622164;87;21810;-74
2022/08/29 10:06:38;;;;;;;;;;;;;;;21.01;67.43;100893.90;1592467;88;20871;-75
2022/08/29 10:09:23;;;;;;;;;;;;;;;21.17;67.28;100890.63;1593591;87;20160;-74
2022/08/29 10:11:53;;;;;;;;;;;;;;;21.22;67.12;100894.83;1610449;87;20421;-75
2022/08/29 10:14:39;;;;;;;;;;;;;;;21.31;67.10;100902.14;1615925;87;20439;-74
2022/08/29 10:19:56;;;;;;;;;;;;;;;21.61;66.61;100896.20;1625649;86;20420;-73
2022/08/29 10:22:37;;;;;;;;;;;;;;;21.72;66.54;100892.70;1640491;86;20848;-73
2022/08/29 10:25:10;;;;;;;;;;;;;;;21.91;66.41;100897.59;1640290;86;20472;-73
2022/08/29 10:27:43;;;;;;;;;;;;;;;21.71;65.92;100895.67;1644153;86;20107;-73
2022/08/29 10:30:14;;;;;;;;;;;;;;;21.40;65.74;100907.02;1640100;86;21824;-73
2022/08/29 10:32:53;;;;;;;;;;;;;;;21.28;65.53;100902.08;1639042;86;20146;-72
2022/08/29 10:35:26;;;;;;;;;;;;;;;21.37;65.42;100903.41;1628855;86;20113;-73
2022/08/29 10:38:16;;;;;;;;;;;;;;;21.58;65.20;100897.19;1628024;86;20396;-73
2022/08/29 10:40:46;;;;;;;;;;;;;;;21.66;64.99;100891.45;1635437;86;20171;-73
2022/08/29 10:43:21;;;;;;;;;;;;;;;21.59;64.24;100898.85;1640592;86;21965;-74
2022/08/29 10:46:07;;;;;;;;;;;;;;;21.55;64.10;100897.65;1658156;86;20722;-73
2022/08/29 10:48:48;;;;;;;;;;;;;;;21.54;63.92;100902.77;1655657;86;20221;-74
2022/08/29 10:51:21;;;;;;;;;;;;;;;21.65;63.88;100900.64;1688962;83;20274;-74
2022/08/29 10:53:51;;;;;;;;;;;;;;;21.78;63.59;100896.38;1677533;83;20184;-73
2022/08/29 10:56:20;;;;;;;;;;;;;;;21.85;63.32;100897.10;1681076;84;21875;-73
2022/08/29 10:59:11;;;;;;;;;;;;;;;21.96;63.17;100893.63;1708898;83;20743;-74
2022/08/29 11:01:42;;;;;;;;;;;;;;;22.02;63.05;100902.23;1666264;83;20121;-73
2022/08/29 11:04:16;;;;;;;;;;;;;;;22.03;62.78;100890.80;1610620;87;21280;-74
2022/08/29 11:06:42;;;;;;;;;;;;;;;21.99;62.56;100893.72;1637418;86;20146;-74
2022/08/29 11:09:11;;;;;;;;;;;;;;;21.74;62.19;100891.13;1643333;86;21866;-74
2022/08/29 11:11:39;;;;;;;;;;;;;;;21.57;62.27;100886.85;1639047;86;20183;-74
2022/08/29 11:14:07;;;;;;;;;;;;;;;21.69;62.52;100880.13;1639892;86;20184;-73
2022/08/29 11:16:42;;;;;;;;;;;;;;;22.00;62.62;100886.67;1652340;86;21213;-74
2022/08/29 11:19:33;;;;;;;;;;;;;;;22.05;62.31;100878.67;1637304;87;20231;-74
2022/08/29 11:22:14;;;;;;;;;;;;;;;21.86;62.23;100884.66;1641212;86;22669;-74
2022/08/29 11:24:40;;;;;;;;;;;;;;;21.92;62.16;100887.56;1654007;86;20392;-74
2022/08/29 11:27:38;;;;;;;;;;;;;;;22.07;62.00;100892.00;1645911;86;20635;-74
2022/08/29 11:30:09;;;;;;;;;;;;;;;22.14;61.90;100892.20;1657004;86;20430;-73
2022/08/29 11:32:45;;;;;;;;;;;;;;;22.25;61.68;100898.19;1657746;86;20164;-72
2022/08/29 11:35:43;;;;;;;;;;;;;;;22.13;61.42;100901.40;1647798;86;22715;-72
2022/08/29 11:38:28;;;;;;;;;;;;;;;21.92;60.89;100896.50;1652285;86;20167;-73
2022/08/29 11:41:03;;;;;;;;;;;;;;;21.92;60.64;100897.06;1650856;86;20171;-72
2022/08/29 11:43:33;;;;;;;;;;;;;;;21.99;60.44;100897.23;1645122;86;20410;-73
2022/08/29 11:46:00;;;;;;;;;;;;;;;21.72;60.19;100897.30;1644960;86;20191;-72
2022/08/29 11:48:44;;;;;;;;;;;;;;;21.68;60.32;100896.10;1645325;86;21766;-72
2022/08/29 11:51:30;;;;;;;;;;;;;;;21.93;60.25;100901.41;1636063;86;20454;-73
2022/08/29 11:54:16;;;;;;;;;;;;;;;22.19;60.20;100894.22;1644722;86;20167;-73
2022/08/29 11:56:42;;;;;;;;;;;;;;;22.40;60.19;100889.05;1646520;86;20369;-73
2022/08/29 11:59:08;;;;;;;;;;;;;;;22.61;59.98;100894.96;1645194;86;20261;-72
2022/08/29 12:01:38;;;;;;;;;;;;;;;22.77;59.93;100896.45;1645101;86;22347;-73
2022/08/29 12:04:05;;;;;;;;;;;;;;;22.86;59.75;100896.94;1644346;86;20228;-73
2022/08/29 12:06:52;;;;;;;;;;;;;;;22.85;59.62;100896.11;1655673;85;20181;-72
2022/08/29 12:09:21;;;;;;;;;;;;;;;22.74;59.27;100890.14;1663247;85;20367;-73
2022/08/29 12:12:11;;;;;;;;;;;;;;;22.86;59.20;100891.49;1643281;86;20168;-73
2022/08/29 12:14:42;;;;;;;;;;;;;;;22.89;59.03;100891.02;1654498;86;22607;-73
2022/08/29 12:17:24;;;;;;;;;;;;;;;23.02;58.91;100881.23;1656307;86;20140;-73
2022/08/29 12:19:52;;;;;;;;;;;;;;;22.77;58.69;100886.94;1645030;86;20127;-72
2022/08/29 12:22:44;;;;;;;;;;;;;;;22.50;58.72;100889.81;1641688;86;20517;-72
2022/08/29 12:25:32;;;;;;;;;;;;;;;22.49;58.76;100897.67;1631741;86;20195;-72
2022/08/29 12:28:02;;;;;;;;;;;;;;;22.55;58.68;100887.77;1653778;86;21786;-72
2022/08/29 12:30:32;;;;;;;;;;;;;;;22.61;58.52;100890.36;1654134;86;20460;-73
2022/08/29 12:33:04;;;;;;;;;;;;;;;22.88;58.55;100887.46;1655175;86;20169;-73
2022/08/29 12:36:07;;;;;;;;;;;;;;;22.89;58.22;100878.77;1645079;85;20551;-74
2022/08/29 12:38:37;;;;;;;;;;;;;;;22.88;58.16;100879.83;1654053;86;20207;-73
2022/08/29 12:41:07;;;;;;;;;;;;;;;22.83;58.13;100887.34;1643841;86;21869;-73
2022/08/29 12:43:42;;;;;;;;;;;;;;;22.63;58.14;100881.94;1643230;86;20144;-73
2022/08/29 12:46:24;;;;;;;;;;;;;;;22.57;58.25;100882.90;1666353;86;20184;-72
2022/08/29 12:48:54;;;;;;;;;;;;;;;22.54;58.28;100878.77;1646540;86;21201;-73
2022/08/29 12:51:40;;;;;;;;;;;;;;;22.59;58.23;100882.95;1656352;86;20146;-73
2022/08/29 12:54:06;;;;;;;;;;;;;;;22.55;58.00;100878.25;1658731;86;22525;-73